Time;durP1;ratioP1;P1;durP2;ratioP2;P2;SDS_P1;SDS_P2;PMS_P1;PMS_P2;Temp;Humidity;BMP_temperature;BMP_pressure;BME280_temperature;BME280_humidity;BME280_pressure;Samples;Min_cycle;Max_cycle;Signal;HPM_P1;HPM_P2
2021/04/17 00:00:48;;;;;;;5.88;2.38;;;;;;;8.62;44.22;101949.59;5038159;28;20045;-94
2021/04/17 00:03:13;;;;;;;4.82;2.28;;;;;;;8.54;44.96;101943.78;5037893;28;20112;-95
2021/04/17 00:05:39;;;;;;;3.30;2.70;;;;;;;8.62;44.26;101940.91;5038002;28;20103;-94
2021/04/17 00:08:05;;;;;;;2.67;2.40;;;;;;;8.56;44.52;101951.59;5037370;28;20021;-93
2021/04/17 00:10:30;;;;;;;3.80;2.90;;;;;;;8.51;44.90;101943.88;5037703;28;20068;-95
2021/04/17 00:12:56;;;;;;;8.57;2.60;;;;;;;8.58;44.41;101952.41;5038481;28;20246;-95
2021/04/17 00:15:21;;;;;;;8.55;2.80;;;;;;;8.51;44.29;101944.75;5043252;28;20108;-94
2021/04/17 00:17:47;;;;;;;3.63;2.38;;;;;;;8.46;44.18;101945.81;5040696;28;20029;-95
2021/04/17 00:20:13;;;;;;;6.80;3.45;;;;;;;8.56;44.50;101944.59;5037871;28;20096;-94
2021/04/17 00:22:39;;;;;;;3.67;2.35;;;;;;;8.52;44.40;101945.59;5037276;28;20037;-95
2021/04/17 00:25:05;;;;;;;5.20;3.03;;;;;;;8.52;44.59;101951.69;5039853;28;20100;-94
2021/04/17 00:27:30;;;;;;;2.65;2.40;;;;;;;8.61;45.16;101955.78;5039725;28;20030;-95
2021/04/17 00:29:55;;;;;;;3.45;2.47;;;;;;;8.53;45.79;101952.53;5038310;28;20097;-95
2021/04/17 00:32:21;;;;;;;4.47;2.33;;;;;;;8.43;45.98;101951.16;5035368;28;20029;-94
2021/04/17 00:34:46;;;;;;;4.57;2.50;;;;;;;8.34;46.16;101955.75;5037026;28;20035;-95
2021/04/17 00:37:12;;;;;;;3.20;2.08;;;;;;;8.26;45.39;101944.69;5036785;28;20049;-95
2021/04/17 00:39:38;;;;;;;5.28;2.50;;;;;;;8.24;45.97;101950.91;5040239;28;20052;-95
2021/04/17 00:42:03;;;;;;;4.18;2.67;;;;;;;8.19;45.85;101958.03;5044028;28;20025;-95
2021/04/17 00:44:29;;;;;;;8.38;2.88;;;;;;;8.10;46.67;101946.97;5036888;28;20061;-95
2021/04/17 00:46:55;;;;;;;5.10;3.00;;;;;;;8.05;45.61;101953.25;5038045;28;20025;-94
2021/04/17 00:49:20;;;;;;;4.13;2.65;;;;;;;7.87;46.46;101952.94;5037169;28;20476;-94
2021/04/17 00:51:45;;;;;;;4.93;3.10;;;;;;;7.92;46.49;101951.06;5034946;28;20025;-94
2021/04/17 00:54:11;;;;;;;4.10;2.70;;;;;;;7.97;46.35;101950.88;5036026;28;20017;-95
2021/04/17 00:56:36;;;;;;;5.05;2.70;;;;;;;7.94;46.04;101943.16;5036055;28;20032;-95
2021/04/17 00:59:04;;;;;;;7.35;3.25;;;;;;;8.10;46.26;101954.81;5035620;28;20025;-94
2021/04/17 01:01:30;;;;;;;2.78;2.45;;;;;;;8.08;46.45;101940.09;5036199;28;20033;-93
2021/04/17 01:04:27;;;;;;;6.20;3.08;;;;;;;8.10;46.27;101943.50;5035419;28;20025;-93
2021/04/17 01:07:02;;;;;;;4.47;3.45;;;;;;;8.09;46.75;101941.78;5028989;28;20029;-94
2021/04/17 01:09:39;;;;;;;5.25;3.25;;;;;;;8.06;46.32;101937.53;5036003;28;20091;-94
2021/04/17 01:12:09;;;;;;;6.90;3.20;;;;;;;7.91;47.18;101932.78;5035788;28;20048;-96
2021/04/17 01:14:35;;;;;;;6.20;3.35;;;;;;;7.87;47.55;101937.25;5035818;28;20087;-94
2021/04/17 01:17:02;;;;;;;6.05;3.60;;;;;;;7.82;47.63;101930.44;5035436;28;20037;-94
2021/04/17 01:19:49;;;;;;;5.57;3.10;;;;;;;7.89;47.26;101926.75;5034943;28;20021;-95
2021/04/17 01:22:22;;;;;;;4.65;3.15;;;;;;;7.82;47.73;101933.94;5035673;28;20032;-94
2021/04/17 01:24:59;;;;;;;3.78;3.13;;;;;;;7.76;48.23;101923.69;5034877;28;20026;-94
2021/04/17 01:27:25;;;;;;;4.97;3.20;;;;;;;7.69;48.13;101924.78;5035590;28;20021;-96
2021/04/17 01:29:50;;;;;;;5.25;3.58;;;;;;;7.71;48.56;101930.81;5035490;28;20033;-94
2021/04/17 01:32:17;;;;;;;5.57;3.53;;;;;;;7.67;48.44;101923.97;5034014;28;20021;-95
2021/04/17 01:34:43;;;;;;;5.63;4.13;;;;;;;7.63;49.04;101927.59;5035279;28;20030;-95
2021/04/17 01:37:13;;;;;;;5.38;3.75;;;;;;;7.54;49.27;101923.47;5034918;28;20123;-95
2021/04/17 01:39:40;;;;;;;6.03;4.10;;;;;;;7.43;49.42;101931.66;5035255;28;20052;-95
2021/04/17 01:42:14;;;;;;;6.13;3.95;;;;;;;7.40;49.75;101926.53;5035280;28;20112;-94
2021/04/17 01:44:45;;;;;;;8.20;3.83;;;;;;;7.59;49.05;101931.19;5048032;28;20026;-95
2021/04/17 01:47:13;;;;;;;8.48;3.90;;;;;;;7.51;49.56;101921.81;5050942;28;20035;-93
2021/04/17 01:49:43;;;;;;;8.27;4.18;;;;;;;7.58;49.93;101924.25;5050167;28;20055;-93
2021/04/17 01:52:12;;;;;;;7.13;4.00;;;;;;;7.57;49.61;101930.41;5052636;28;20480;-93
2021/04/17 01:54:43;;;;;;;5.93;3.90;;;;;;;7.49;50.34;101921.03;5052258;28;20026;-93
2021/04/17 01:57:13;;;;;;;5.78;3.85;;;;;;;7.42;50.49;101934.31;5037870;28;20089;-95
2021/04/17 01:59:40;;;;;;;5.03;3.38;;;;;;;7.34;50.84;101929.31;5034429;28;20495;-94
2021/04/17 02:02:06;;;;;;;4.85;3.70;;;;;;;7.19;51.48;101929.78;5034717;28;20498;-96
2021/04/17 02:04:33;;;;;;;6.93;3.70;;;;;;;7.12;51.90;101929.94;5033461;28;20029;-95
2021/04/17 02:06:59;;;;;;;7.63;4.18;;;;;;;7.20;51.95;101934.09;5034494;28;20022;-95
2021/04/17 02:09:24;;;;;;;7.25;4.35;;;;;;;7.05;51.91;101938.00;5034756;28;20021;-94
2021/04/17 02:11:49;;;;;;;5.57;4.00;;;;;;;7.01;51.83;101932.03;5034416;28;20021;-94
2021/04/17 02:14:15;;;;;;;5.82;4.18;;;;;;;6.96;52.24;101931.31;5034660;28;20028;-95
2021/04/17 02:17:01;;;;;;;6.22;3.40;;;;;;;6.97;52.63;101927.81;5034261;28;20407;-95
2021/04/17 02:19:33;;;;;;;7.35;4.55;;;;;;;7.04;52.48;101931.94;5032911;28;20400;-93
2021/04/17 02:22:00;;;;;;;6.95;4.95;;;;;;;7.03;52.62;101940.69;5034314;28;20044;-94
2021/04/17 02:24:29;;;;;;;5.30;4.25;;;;;;;7.04;52.99;101942.38;5032917;28;20034;-95
2021/04/17 02:26:56;;;;;;;8.93;4.25;;;;;;;6.94;52.72;101939.16;5033966;28;20029;-94
2021/04/17 02:29:22;;;;;;;9.32;4.50;;;;;;;6.79;52.91;101941.34;5032864;28;20499;-94
2021/04/17 02:31:49;;;;;;;7.00;5.00;;;;;;;6.68;53.07;101933.84;5034009;28;20025;-94
2021/04/17 02:34:16;;;;;;;6.35;4.95;;;;;;;6.61;52.98;101934.88;5033051;28;20098;-94
2021/04/17 02:36:41;;;;;;;8.02;5.18;;;;;;;6.57;53.35;101928.03;5032703;28;20561;-94
2021/04/17 02:39:06;;;;;;;7.57;5.05;;;;;;;6.47;53.61;101933.50;5034294;28;20079;-94
2021/04/17 02:41:32;;;;;;;7.45;5.50;;;;;;;6.39;54.19;101930.22;5032870;28;20018;-93
2021/04/17 02:43:58;;;;;;;6.50;4.80;;;;;;;6.26;53.86;101934.94;5033914;28;20104;-93
2021/04/17 02:46:24;;;;;;;7.82;5.28;;;;;;;6.15;54.33;101932.56;5032434;28;20028;-94
2021/04/17 02:48:49;;;;;;;8.77;5.38;;;;;;;6.17;55.05;101937.75;5032568;28;20033;-94
2021/04/17 02:51:15;;;;;;;5.78;5.03;;;;;;;6.04;54.90;101938.94;5032777;28;20021;-93
2021/04/17 02:53:40;;;;;;;9.95;5.30;;;;;;;5.89;55.80;101929.72;5032779;28;20072;-93
2021/04/17 02:56:06;;;;;;;6.50;4.97;;;;;;;5.95;55.66;101916.56;5033168;28;20026;-95
2021/04/17 02:58:31;;;;;;;12.70;7.90;;;;;;;5.94;56.26;101931.34;5033045;28;20021;-94
2021/04/17 03:00:57;;;;;;;8.95;6.07;;;;;;;5.97;56.37;101933.03;5033739;28;20075;-93
2021/04/17 03:03:23;;;;;;;8.27;5.43;;;;;;;5.99;56.55;101930.41;5033473;28;20083;-93
2021/04/17 03:05:49;;;;;;;6.60;4.95;;;;;;;6.11;56.33;101936.16;5033687;28;20030;-93
2021/04/17 03:08:15;;;;;;;7.85;5.38;;;;;;;6.01;56.66;101934.66;5033936;28;20092;-94
2021/04/17 03:10:40;;;;;;;8.38;5.07;;;;;;;6.04;56.62;101928.50;5033450;28;20053;-95
2021/04/17 03:13:07;;;;;;;7.35;5.00;;;;;;;6.19;56.90;101941.19;5034237;28;20079;-96
2021/04/17 03:15:32;;;;;;;7.53;5.40;;;;;;;6.19;56.98;101946.41;5032398;28;20013;-94
2021/04/17 03:17:58;;;;;;;11.90;5.68;;;;;;;6.30;56.56;101947.00;5033443;28;20040;-95
2021/04/17 03:20:24;;;;;;;5.85;4.85;;;;;;;6.21;56.57;101942.00;5032182;28;20030;-95
2021/04/17 03:22:49;;;;;;;7.47;5.43;;;;;;;6.26;56.65;101941.88;5033497;28;20032;-95
2021/04/17 03:25:15;;;;;;;11.98;5.82;;;;;;;6.29;56.29;101939.19;5032271;28;20545;-94
2021/04/17 03:27:42;;;;;;;7.75;5.30;;;;;;;6.29;56.87;101940.03;5033360;28;20430;-95
2021/04/17 03:30:10;;;;;;;8.18;4.82;;;;;;;6.39;55.82;101939.81;5033474;28;20032;-93
2021/04/17 03:32:36;;;;;;;7.82;5.10;;;;;;;6.37;56.11;101946.81;5033390;28;20067;-95
2021/04/17 03:35:05;;;;;;;8.27;5.35;;;;;;;6.39;55.94;101955.47;5033024;28;20013;-93
2021/04/17 03:37:30;;;;;;;8.02;4.43;;;;;;;6.37;55.86;101949.44;5033105;28;20392;-93
2021/04/17 03:39:55;;;;;;;8.88;5.05;;;;;;;6.26;56.21;101936.66;5033840;28;20025;-94
2021/04/17 03:42:21;;;;;;;6.50;5.00;;;;;;;6.29;56.27;101945.25;5033252;28;20029;-94
2021/04/17 03:44:46;;;;;;;13.25;5.60;;;;;;;6.31;56.20;101953.91;5033351;28;20037;-94
2021/04/17 03:47:11;;;;;;;7.72;4.97;;;;;;;6.31;55.85;101955.66;5032131;28;20388;-94
2021/04/17 03:49:37;;;;;;;6.82;4.75;;;;;;;6.22;55.85;101945.44;5033558;28;20029;-93
2021/04/17 03:52:02;;;;;;;5.78;4.90;;;;;;;6.20;56.15;101950.72;5032944;28;20028;-93
2021/04/17 03:54:28;;;;;;;9.60;5.43;;;;;;;6.14;56.56;101946.53;5032061;28;20029;-93
2021/04/17 03:56:53;;;;;;;7.03;5.10;;;;;;;6.18;56.85;101947.31;5037641;28;20017;-93
2021/04/17 03:59:18;;;;;;;10.48;5.60;;;;;;;6.20;55.98;101952.47;5034348;28;20034;-95
2021/04/17 04:01:44;;;;;;;7.70;5.55;;;;;;;6.16;55.98;101946.44;5032949;28;20117;-96
2021/04/17 04:04:09;;;;;;;8.48;5.55;;;;;;;5.99;56.60;101948.66;5032222;28;20117;-94
2021/04/17 04:06:35;;;;;;;11.90;5.18;;;;;;;5.97;56.32;101947.81;5033760;28;20148;-94
2021/04/17 04:09:00;;;;;;;10.00;5.68;;;;;;;6.03;56.10;101947.69;5036553;28;20041;-94
2021/04/17 04:11:25;;;;;;;7.80;4.88;;;;;;;6.02;56.03;101930.31;5036670;28;20068;-94
2021/04/17 04:13:51;;;;;;;8.23;5.53;;;;;;;6.00;55.97;101940.75;5036388;28;20034;-94
2021/04/17 04:16:16;;;;;;;11.52;5.22;;;;;;;5.93;55.98;101940.03;5036553;28;20021;-94
2021/04/17 04:18:42;;;;;;;11.48;5.22;;;;;;;5.87;56.37;101945.41;5034995;28;20048;-94
2021/04/17 04:21:07;;;;;;;6.88;4.70;;;;;;;5.77;56.46;101943.91;5036185;28;20044;-94
2021/04/17 04:23:32;;;;;;;7.78;5.05;;;;;;;5.72;56.49;101936.16;5036180;28;20029;-94
2021/04/17 04:25:58;;;;;;;8.30;5.63;;;;;;;5.57;56.80;101953.03;5036126;28;20439;-93
2021/04/17 04:28:23;;;;;;;5.88;4.60;;;;;;;5.55;57.14;101952.22;5036166;28;20057;-93
2021/04/17 04:30:49;;;;;;;6.38;5.03;;;;;;;5.52;57.93;101947.06;5034790;28;20036;-95
2021/04/17 04:33:15;;;;;;;8.88;4.82;;;;;;;5.46;57.34;101955.00;5036215;28;20041;-95
2021/04/17 04:35:40;;;;;;;8.95;6.15;;;;;;;5.39;58.07;101945.63;5034923;28;20036;-94
2021/04/17 04:38:06;;;;;;;9.07;5.15;;;;;;;5.33;57.95;101950.94;5036221;28;20025;-94
2021/04/17 04:40:31;;;;;;;12.75;5.97;;;;;;;5.30;58.15;101941.47;5036000;28;20017;-94
2021/04/17 04:42:57;;;;;;;10.73;6.47;;;;;;;5.31;58.48;101957.94;5035646;28;20029;-93
2021/04/17 04:45:22;;;;;;;8.35;5.93;;;;;;;5.15;58.45;101952.19;5036148;28;20022;-94
2021/04/17 04:47:47;;;;;;;8.45;6.00;;;;;;;5.16;58.60;101946.94;5034968;28;20047;-93
2021/04/17 04:50:13;;;;;;;6.75;5.78;;;;;;;4.96;59.08;101951.72;5035763;28;20033;-94
2021/04/17 04:52:38;;;;;;;9.35;7.15;;;;;;;5.01;59.79;101960.28;5035665;28;20030;-94
2021/04/17 04:55:05;;;;;;;8.35;6.40;;;;;;;5.00;59.29;101953.38;5034613;28;20036;-94
2021/04/17 04:57:31;;;;;;;8.52;5.78;;;;;;;5.15;59.02;101953.06;5036037;28;20387;-94
2021/04/17 04:59:56;;;;;;;10.98;5.93;;;;;;;5.10;59.19;101949.69;5034370;28;20025;-95
2021/04/17 05:02:22;;;;;;;8.40;5.70;;;;;;;5.12;58.88;101955.72;5035817;28;20034;-94
2021/04/17 05:04:47;;;;;;;9.02;6.50;;;;;;;5.09;59.42;101953.16;5034275;28;20091;-93
2021/04/17 05:07:13;;;;;;;10.68;6.18;;;;;;;5.06;58.99;101942.84;5034424;28;20484;-93
2021/04/17 05:09:38;;;;;;;10.27;5.95;;;;;;;4.97;59.39;101950.81;5034184;28;20060;-94
2021/04/17 05:12:05;;;;;;;8.30;6.10;;;;;;;4.97;59.22;101948.22;5035374;28;20022;-94
2021/04/17 05:14:30;;;;;;;8.75;5.90;;;;;;;4.95;59.64;101955.19;5033995;28;20664;-94
2021/04/17 05:16:56;;;;;;;9.07;6.28;;;;;;;4.94;59.32;101949.13;5034152;28;20029;-95
2021/04/17 05:19:21;;;;;;;8.07;5.75;;;;;;;4.99;59.51;101950.78;5035061;28;20025;-94
2021/04/17 05:21:46;;;;;;;9.00;5.80;;;;;;;4.96;59.10;101951.72;5034981;28;20026;-94
2021/04/17 05:24:12;;;;;;;11.23;5.65;;;;;;;4.91;59.78;101953.53;5035072;28;20021;-94
2021/04/17 05:26:37;;;;;;;8.25;5.47;;;;;;;4.84;59.92;101946.72;5033706;28;20021;-94
2021/04/17 05:29:03;;;;;;;7.82;5.57;;;;;;;4.77;59.91;101948.59;5033937;28;20022;-93
2021/04/17 05:31:29;;;;;;;8.77;6.10;;;;;;;4.76;60.10;101950.34;5034958;28;20029;-93
2021/04/17 05:33:54;;;;;;;7.32;5.35;;;;;;;4.82;59.81;101948.50;5033882;28;20033;-93
2021/04/17 05:36:21;;;;;;;8.95;6.00;;;;;;;4.76;59.94;101942.56;5034703;28;20025;-95
2021/04/17 05:38:46;;;;;;;9.32;5.50;;;;;;;4.83;60.70;101947.63;5034877;28;20025;-93
2021/04/17 05:41:12;;;;;;;7.45;6.18;;;;;;;4.83;61.00;101945.03;5034789;28;20021;-94
2021/04/17 05:43:37;;;;;;;12.40;6.70;;;;;;;4.80;59.55;101942.47;5042522;28;20021;-94
2021/04/17 05:46:03;;;;;;;9.13;5.93;;;;;;;4.85;60.18;101953.66;5035683;28;20028;-93
2021/04/17 05:48:28;;;;;;;7.63;5.72;;;;;;;4.90;60.50;101949.25;5034153;28;20017;-94
2021/04/17 05:50:53;;;;;;;9.63;5.88;;;;;;;4.84;60.29;101941.53;5033626;28;20484;-93
2021/04/17 05:53:19;;;;;;;9.57;6.43;;;;;;;4.92;60.44;101952.66;5033896;28;20439;-93
2021/04/17 05:55:44;;;;;;;9.07;6.55;;;;;;;4.92;60.82;101950.91;5034427;28;20534;-93
2021/04/17 05:58:10;;;;;;;8.63;6.18;;;;;;;5.01;60.33;101949.88;5034816;28;20029;-94
2021/04/17 06:00:35;;;;;;;9.13;6.40;;;;;;;5.06;59.92;101948.03;5034418;28;20051;-94
2021/04/17 06:03:03;;;;;;;7.75;5.70;;;;;;;5.10;59.85;101949.69;5033592;28;20064;-92
2021/04/17 06:05:29;;;;;;;7.78;6.07;;;;;;;5.08;60.33;101945.41;5034469;28;20033;-93
2021/04/17 06:07:54;;;;;;;8.88;6.65;;;;;;;5.15;59.69;101955.66;5033412;28;20025;-94
2021/04/17 06:10:19;;;;;;;6.90;5.95;;;;;;;5.20;59.88;101949.50;5041660;28;20455;-93
2021/04/17 06:12:45;;;;;;;10.05;5.97;;;;;;;5.27;60.27;101961.50;5035198;28;20389;-94
2021/04/17 06:15:12;;;;;;;10.32;6.38;;;;;;;5.27;59.89;101956.28;5035316;28;20033;-94
2021/04/17 06:17:37;;;;;;;7.25;5.78;;;;;;;5.31;59.80;101958.81;5033871;28;20368;-93
2021/04/17 06:20:04;;;;;;;10.10;6.90;;;;;;;5.40;59.73;101957.75;5033214;28;20025;-93
2021/04/17 06:22:29;;;;;;;9.68;6.03;;;;;;;5.46;59.89;101957.59;5034365;28;20026;-94
2021/04/17 06:24:55;;;;;;;7.47;5.93;;;;;;;5.57;59.67;101953.03;5055158;28;20037;-94
2021/04/17 06:27:20;;;;;;;9.40;6.15;;;;;;;5.67;59.08;101956.28;5057371;28;20029;-93
2021/04/17 06:29:45;;;;;;;9.30;6.45;;;;;;;5.69;59.49;101956.25;5056766;28;20025;-93
2021/04/17 06:32:11;;;;;;;6.97;6.10;;;;;;;5.90;59.11;101958.34;5056214;28;20025;-93
2021/04/17 06:34:36;;;;;;;8.15;5.72;;;;;;;6.00;59.24;101947.75;5041689;28;20120;-94
2021/04/17 06:37:02;;;;;;;8.32;5.80;;;;;;;6.09;59.11;101950.13;5034677;28;20045;-94
2021/04/17 06:39:27;;;;;;;10.57;7.00;;;;;;;6.26;58.53;101953.19;5034416;28;20024;-93
2021/04/17 06:41:53;;;;;;;8.55;6.70;;;;;;;6.46;58.38;101962.25;5035326;28;20025;-94
2021/04/17 06:44:21;;;;;;;10.05;6.55;;;;;;;6.79;57.79;101959.63;5039454;28;20104;-95
2021/04/17 06:46:47;;;;;;;10.68;7.03;;;;;;;8.61;53.95;101961.00;5033745;28;20139;-93
2021/04/17 06:49:14;;;;;;;8.05;6.32;;;;;;;9.95;50.86;101955.09;5032487;28;20387;-94
2021/04/17 06:51:45;;;;;;;8.40;6.00;;;;;;;11.06;46.99;101953.91;5032633;28;20025;-94
2021/04/17 06:54:13;;;;;;;9.00;5.88;;;;;;;12.25;44.15;101946.50;5033634;28;20100;-95
2021/04/17 06:56:40;;;;;;;9.82;6.60;;;;;;;13.18;41.34;101945.19;5034197;28;20029;-93
2021/04/17 06:59:06;;;;;;;8.98;6.00;;;;;;;14.38;38.79;101954.25;5033505;28;20029;-94
2021/04/17 07:01:32;;;;;;;8.35;5.88;;;;;;;14.67;36.86;101941.94;5034024;28;20030;-96
2021/04/17 07:03:58;;;;;;;8.93;5.90;;;;;;;15.51;35.85;101953.53;5039035;28;20054;-95
2021/04/17 07:06:24;;;;;;;12.27;5.22;;;;;;;16.42;34.77;101956.38;5053799;28;20025;-95
2021/04/17 07:08:49;;;;;;;7.40;5.68;;;;;;;17.14;32.98;101955.81;5052334;28;20043;-96
2021/04/17 07:11:16;;;;;;;8.70;5.35;;;;;;;17.21;32.64;101962.41;5052648;28;20017;-95
2021/04/17 07:14:04;;;;;;;6.35;5.18;;;;;;;17.64;31.21;101960.16;5067904;28;20395;-96
2021/04/17 07:16:29;;;;;;;6.60;4.90;;;;;;;18.25;30.44;101951.25;5068106;28;20029;-95
2021/04/17 07:18:55;;;;;;;9.27;5.57;;;;;;;18.45;29.83;101955.06;5071106;28;20040;-96
2021/04/17 07:21:20;;;;;;;9.20;5.53;;;;;;;18.77;29.48;101957.88;5073772;28;20086;-95
2021/04/17 07:23:47;;;;;;;7.22;5.20;;;;;;;19.12;28.93;101953.44;5074709;28;20032;-95
2021/04/17 07:26:16;;;;;;;7.65;5.63;;;;;;;19.49;28.09;101956.66;5076867;28;20020;-96
2021/04/17 07:28:54;;;;;;;13.52;5.53;;;;;;;19.61;28.02;101950.31;5073423;28;20041;-96
2021/04/17 07:31:20;;;;;;;7.32;5.55;;;;;;;19.78;27.55;101948.94;5073597;28;20021;-96
2021/04/17 07:33:46;;;;;;;7.70;5.25;;;;;;;19.99;27.07;101946.31;5076404;28;20029;-96
2021/04/17 07:36:11;;;;;;;7.35;5.30;;;;;;;20.38;27.40;101943.94;5074673;28;20017;-96
2021/04/17 07:38:38;;;;;;;11.10;5.72;;;;;;;20.45;26.12;101944.25;5071592;28;20048;-96
2021/04/17 07:41:20;;;;;;;7.05;4.85;;;;;;;20.62;26.42;101939.31;5065170;28;20104;-96
2021/04/17 07:43:47;;;;;;;8.10;5.35;;;;;;;20.29;27.17;101941.22;5052809;28;20100;-96
2021/04/17 07:46:14;;;;;;;6.13;5.13;;;;;;;20.79;26.03;101944.03;5057398;28;20021;-96
2021/04/17 07:48:39;;;;;;;6.32;4.47;;;;;;;21.41;25.56;101941.28;5073860;28;20025;-96
2021/04/17 07:51:08;;;;;;;8.10;4.88;;;;;;;21.29;24.83;101938.72;5067165;28;20070;-96
2021/04/17 07:53:36;;;;;;;6.18;5.15;;;;;;;21.00;25.69;101936.81;5044533;28;20078;-96
2021/04/17 07:56:23;;;;;;;5.60;4.40;;;;;;;21.94;24.56;101933.75;5062594;28;20095;-96
2021/04/17 07:58:51;;;;;;;6.93;4.30;;;;;;;22.23;24.10;101942.72;5055158;28;20020;-96
2021/04/17 08:01:18;;;;;;;8.88;4.68;;;;;;;22.87;23.50;101933.97;5072323;28;20013;-96
2021/04/17 08:03:45;;;;;;;8.05;4.93;;;;;;;23.17;22.87;101927.50;5062042;28;20120;-96
2021/04/17 08:06:12;;;;;;;9.88;5.20;;;;;;;22.91;23.12;101930.03;5044231;28;20033;-96
2021/04/17 08:08:42;;;;;;;11.55;5.15;;;;;;;23.48;22.73;101939.72;5052632;28;20032;-96
2021/04/17 08:11:09;;;;;;;7.75;4.07;;;;;;;24.09;21.99;101941.66;5064919;28;20029;-96
2021/04/17 08:13:39;;;;;;;10.23;4.95;;;;;;;24.40;21.33;101922.41;5068138;28;20086;-96
2021/04/17 08:29:05;;;;;;;6.53;4.25;;;;;;;24.46;19.89;101927.13;4995995;28;20061;-96
2021/04/17 08:34:20;;;;;;;6.07;3.75;;;;;;;24.90;19.90;101924.41;5757683;22;20067;-96
2021/04/17 08:36:49;;;;;;;7.32;3.65;;;;;;;25.72;18.79;101916.53;5093314;28;20078;-96
2021/04/17 08:39:33;;;;;;;7.43;4.15;;;;;;;26.01;18.80;101942.13;5063252;28;20026;-96
2021/04/17 08:41:59;;;;;;;5.15;3.60;;;;;;;26.11;18.54;101915.03;5047806;28;20036;-95
2021/04/17 08:44:32;;;;;;;6.22;4.13;;;;;;;26.54;18.23;101930.94;5034847;28;20026;-95
2021/04/17 08:46:59;;;;;;;7.10;3.88;;;;;;;26.29;18.78;101915.69;5039169;28;20033;-94
2021/04/17 08:49:30;;;;;;;9.48;5.05;;;;;;;26.61;17.86;101918.50;5034941;28;20087;-94
2021/04/17 08:52:25;;;;;;;6.93;4.13;;;;;;;25.91;18.92;101930.72;5034872;28;20112;-95
2021/04/17 08:55:11;;;;;;;6.00;4.32;;;;;;;26.00;18.70;101932.38;5034590;28;20476;-95
2021/04/17 08:57:37;;;;;;;6.63;4.07;;;;;;;27.01;17.11;101930.13;5035851;28;20093;-92
2021/04/17 09:00:05;;;;;;;6.70;3.83;;;;;;;27.28;16.83;101920.75;5030557;28;20124;-93
2021/04/17 09:02:43;;;;;;;8.82;3.83;;;;;;;27.95;16.71;101917.41;5029702;28;20018;-93
2021/04/17 09:05:13;;;;;;;8.80;4.25;;;;;;;27.77;17.13;101914.16;5033570;28;20026;-93
2021/04/17 09:07:41;;;;;;;9.75;4.28;;;;;;;28.21;16.22;101910.75;5032494;28;20457;-93
2021/04/17 09:10:32;;;;;;;5.95;4.72;;;;;;;27.96;16.08;101913.66;5031158;28;20013;-93
2021/04/17 09:13:09;;;;;;;5.37;3.80;;;;;;;28.35;16.02;101915.31;5026263;28;20120;-94
2021/04/17 09:15:54;;;;;;;12.35;5.72;;;;;;;28.46;16.51;101919.44;5027467;28;20040;-95
2021/04/17 09:18:32;;;;;;;9.05;6.53;;;;;;;28.68;17.04;101921.22;5030258;28;20029;-94
2021/04/17 09:20:58;;;;;;;7.88;6.03;;;;;;;28.46;17.17;101925.66;5031129;28;20365;-92
2021/04/17 09:23:44;;;;;;;10.57;5.90;;;;;;;28.55;16.94;101926.44;5026663;28;20091;-93
2021/04/17 09:26:30;;;;;;;9.00;5.93;;;;;;;28.55;17.04;101925.59;5026313;28;20426;-93
2021/04/17 09:28:56;;;;;;;11.27;5.32;;;;;;;28.00;16.30;101914.13;5032114;28;20037;-95
2021/04/17 09:31:23;;;;;;;6.05;4.47;;;;;;;28.34;16.19;101910.09;5030518;28;20479;-91
2021/04/17 09:34:01;;;;;;;6.03;4.00;;;;;;;28.94;15.83;101916.34;5033387;28;20033;-91
2021/04/17 09:36:26;;;;;;;8.77;4.32;;;;;;;29.30;16.41;101915.53;5031728;28;20180;-92
2021/04/17 09:38:52;;;;;;;5.13;4.05;;;;;;;28.76;14.78;101898.66;5029235;28;20577;-91
2021/04/17 09:41:17;;;;;;;8.20;4.15;;;;;;;29.50;14.19;101907.59;5027061;28;20464;-92
2021/04/17 09:43:43;;;;;;;5.18;4.03;;;;;;;28.81;14.31;101895.38;5025216;28;20498;-91
2021/04/17 09:46:19;;;;;;;5.30;3.92;;;;;;;29.19;14.37;101904.19;5025310;28;20036;-92
2021/04/17 09:48:46;;;;;;;5.80;4.53;;;;;;;29.05;15.51;101894.22;5029954;28;20076;-93
2021/04/17 09:51:23;;;;;;;8.32;5.32;;;;;;;29.87;15.16;101898.41;5029018;28;20033;-92
2021/04/17 09:53:50;;;;;;;8.15;5.10;;;;;;;30.09;15.25;101904.59;5024982;28;20025;-92
2021/04/17 09:56:30;;;;;;;4.47;4.07;;;;;;;28.77;14.88;101897.63;5025969;28;20383;-92
2021/04/17 09:58:58;;;;;;;7.68;4.28;;;;;;;27.70;16.07;101897.84;5027673;28;20025;-92
2021/04/17 10:01:24;;;;;;;4.90;3.40;;;;;;;28.14;15.38;101896.28;5027189;28;20018;-93
2021/04/17 10:04:00;;;;;;;6.15;3.83;;;;;;;27.53;17.06;101898.97;5029189;28;20452;-91
2021/04/17 10:06:31;;;;;;;5.97;3.92;;;;;;;27.34;15.68;101887.66;5031591;28;20018;-93
2021/04/17 10:09:11;;;;;;;6.03;3.67;;;;;;;28.63;14.27;101883.13;5030883;28;20028;-92
2021/04/17 10:11:39;;;;;;;5.85;3.70;;;;;;;27.68;15.71;101881.00;5040831;28;20251;-92
2021/04/17 10:14:07;;;;;;;5.45;3.63;;;;;;;27.71;16.34;101883.34;5052686;28;20021;-92
2021/04/17 10:16:41;;;;;;;8.52;3.58;;;;;;;28.09;16.72;101877.94;5055549;28;20029;-92
2021/04/17 10:19:16;;;;;;;5.60;3.60;;;;;;;28.54;17.02;101872.59;5051580;28;20036;-92
2021/04/17 10:21:48;;;;;;;5.30;3.50;;;;;;;27.49;15.64;101869.69;5049429;28;20031;-92
2021/04/17 10:24:16;;;;;;;;;;;;;;;28.27;15.40;101869.47;5050505;28;20055;-92
2021/04/17 10:26:51;;;;;;;5.75;2.58;;;;;;;28.87;14.97;101871.16;5049266;28;19925;-92
2021/04/17 10:29:18;;;;;;;6.13;3.03;;;;;;;29.87;12.89;101863.19;5049030;28;20021;-94
2021/04/17 10:31:44;;;;;;;7.07;3.13;;;;;;;29.71;13.75;101871.59;5051447;28;20052;-92
2021/04/17 10:34:09;;;;;;;6.63;3.40;;;;;;;29.59;13.90;101858.56;5052101;28;20017;-92
2021/04/17 10:36:35;;;;;;;3.80;2.97;;;;;;;29.55;14.59;101843.75;5052498;28;20037;-91
2021/04/17 10:39:06;;;;;;;3.92;2.83;;;;;;;29.19;13.53;101879.00;5053394;28;20811;-90
2021/04/17 10:41:32;;;;;;;4.35;3.17;;;;;;;28.29;13.93;101853.94;5051899;28;20005;-94
2021/04/17 10:44:12;;;;;;;6.75;3.05;;;;;;;28.03;15.62;101859.78;5053051;28;20064;-94
2021/04/17 10:46:47;;;;;;;3.65;2.95;;;;;;;28.54;14.96;101843.72;5046208;28;20045;-94
2021/04/17 10:49:34;;;;;;;5.82;2.75;;;;;;;28.64;15.65;101846.94;5053797;28;20017;-94
2021/04/17 10:52:03;;;;;;;3.65;2.80;;;;;;;28.72;15.50;101829.78;5049028;28;20041;-94
2021/04/17 10:54:29;;;;;;;3.83;2.75;;;;;;;29.50;13.89;101838.09;5046008;28;20026;-95
2021/04/17 10:59:27;;;;;;;5.60;2.85;;;;;;;29.74;14.92;101833.31;4983836;28;20477;-90
2021/04/17 11:01:53;;;;;;;5.07;3.08;;;;;;;30.01;13.62;101848.72;4987754;28;20037;-91
2021/04/17 11:04:19;;;;;;;4.60;2.83;;;;;;;28.98;14.50;101836.53;5001378;28;20112;-90
2021/04/17 11:06:48;;;;;;;6.35;2.78;;;;;;;28.46;14.23;101828.41;4986841;28;20504;-90
2021/04/17 11:09:20;;;;;;;3.45;2.78;;;;;;;28.81;14.99;101831.38;4985774;28;20046;-90
2021/04/17 11:12:00;;;;;;;4.53;2.85;;;;;;;28.31;14.95;101826.75;4985616;28;20072;-90
2021/04/17 11:14:28;;;;;;;4.22;3.00;;;;;;;29.18;13.59;101837.59;4986360;28;20014;-90
2021/04/17 11:16:55;;;;;;;5.10;2.67;;;;;;;29.14;13.30;101825.47;4986775;28;20405;-89
2021/04/17 11:19:30;;;;;;;3.83;2.72;;;;;;;30.16;12.35;101821.50;4991226;28;20437;-89
2021/04/17 11:22:20;;;;;;;4.13;2.53;;;;;;;30.38;12.17;101821.44;4991362;28;20033;-89
2021/04/17 11:24:58;;;;;;;4.97;2.87;;;;;;;29.89;12.55;101823.22;4988876;28;20026;-89
2021/04/17 11:27:24;;;;;;;6.60;2.63;;;;;;;30.08;12.56;101818.97;5010979;28;20026;-90
2021/04/17 11:29:50;;;;;;;4.80;2.63;;;;;;;29.62;13.02;101806.78;4994900;28;20030;-90
2021/04/17 11:32:15;;;;;;;3.00;2.70;;;;;;;28.77;13.70;101803.03;4992312;28;20023;-90
2021/04/17 11:34:45;;;;;;;4.82;2.75;;;;;;;28.84;13.31;101809.34;4989273;28;20054;-90
2021/04/17 11:37:12;;;;;;;2.77;2.57;;;;;;;28.86;13.10;101807.28;4992724;28;20030;-90
2021/04/17 11:39:37;;;;;;;3.20;1.98;;;;;;;28.62;13.96;101802.22;4994421;28;20081;-90
2021/04/17 11:42:03;;;;;;;2.45;2.08;;;;;;;29.09;13.24;101795.47;4996303;28;20030;-90
2021/04/17 11:44:28;;;;;;;5.78;3.75;;;;;;;28.74;15.61;101791.78;4994143;28;20425;-90
2021/04/17 11:46:57;;;;;;;3.78;2.63;;;;;;;29.45;13.93;101799.97;4994451;28;20426;-89
2021/04/17 11:49:22;;;;;;;5.05;2.80;;;;;;;29.72;12.89;101800.19;4993917;28;20077;-89
2021/04/17 11:51:47;;;;;;;5.43;2.58;;;;;;;29.04;13.31;101797.91;4994886;28;20026;-86